Tierra Verde, Florida
Current Conditions -  °F | °C
As of 10:53 AM on Thursday 30 Oct 2014 (Local Time) from KSPG Reporting Station
Clear Clear  
Wind Chill: 76°   Ceiling: Unl
Heat Index: 76°   Visibility: 10mi
Dew Point: 68°   Wind: 5mph
Humidity: 76%   Direction: 80°E
Pressure: 29.98"   Gusts: NA
Location:  27.629°N, 82.7242°W
Report Text: KSPG 301453Z 08004KT 10SM CLR 24/20 A2998 RMK AO2 SLP150 T02440200 51007
Loading
Personal Weather Stations






























Interactive Weather Map
Tropical Storm Tracking
New forecast layout! Learn more

10-Day Weather Forecast

Advertisements
Track Severe Weather on mobile